Aerodrome Latest Weathers

# Airport/Station Observation Time (Local Time) Wind Visibility (km) Weather Temp. (°C) Dewdrop (°C) Air Pressure (hPa)
Direction (from) Speed (km/h)
1 Maimun Saleh - Sabang 2022-01-25 15:00:00 WIB Timur 13.0 8.0 Cerah - berawan 30 24 1009
2 Sultan Iskandar Muda - Banda Aceh 2022-01-25 15:30:00 WIB Timur Laut 20.4 >=10 Berawan 30 23 1007
3 Cut Nyak Dien Nagan Raya - Meulaboh, NAD 2022-01-25 13:00:00 WIB Tenang >=10 Berawan 32 26 1009
4 Binaka - Gunung Sitoli 2022-01-25 15:00:00 WIB Timur 11.1 >=10 Berawan 31 25 1006
5 Kualanamu International Airport - Deli Serdang 2022-01-25 15:00:00 WIB Utara 18.5 >=10 Berawan 30 26 1007
6 Dr. Ferdinand Lumban Tobing - Pinangsori (Sibolga) 2022-01-25 15:30:00 WIB Barat Laut 11.1 >=10 Berawan 32 26 1005
7 Silangit - Tapanuli Utara 2022-01-25 15:30:00 WIB Barat Daya 5.6 5.0 Hujan ringan 18 18 1016
8 Aek Godang - Padang Sidempuan 2022-01-25 15:30:00 WIB Timur Laut 3.7 9.0 Berawan 30 21 1007
9 Minangkabau International Airport - Padang 2022-01-25 15:30:00 WIB Barat Daya 7.4 >=10 Cerah - berawan 30 22 1006
10 Depati Parbo - Kerinci 2022-01-25 15:00:00 WIB Timur Laut 11.1 4.0 Hujan ringan 26 22 1011
11 Japura - Rengat 2022-01-25 15:00:00 WIB Timur Laut 9.3 8.0 Berawan 30 25 1006
12 Fatmawati Sukarno - Bengkulu 2022-01-25 15:30:00 WIB Barat Daya 14.8 >=10 Cerah - berawan 32 23 1006
13 Raja Haji Abdullah - Tanjung Balai Karimun 2022-01-25 14:00:00 WIB Timur 9.3 8.0 Cerah - berawan 31 23 1007
14 Sultan Thaha - Jambi 2022-01-25 15:30:00 WIB Utara 9.3 >=10 Berawan 32 25 1006
15 Hang Nadim - Batam 2022-01-25 15:30:00 WIB Timur Laut 27.8 >=10 Cerah - berawan 31 23 1009
16 Raja Haji Fisabilillah - Tanjung Pinang 2022-01-25 15:30:00 WIB Utara 22.2 >=10 Berawan 30 21 1008
17 Dabo - Singkep 2022-01-25 15:00:00 WIB Timur Laut 18.5 8.0 Berawan 31 24 1007
18 Sultan Mahmud Badaruddin II - Palembang 2022-01-25 15:30:00 WIB Utara 16.7 >=10 Berawan 30 24 1006
19 Radin Inten II - Lampung 2022-01-25 15:00:00 WIB Utara 18.5 >=10 Berawan 32 23 1006
20 Astra Ksetra - Lampung 2022-01-25 13:00:00 WIB Utara 9.3 >=10 Berawan 32 23 1006
21 Depati Amir - Pangkal Pinang 2022-01-25 15:30:00 WIB Utara 24.1 >=10 Berawan 30 25 1006
22 Budiarto - Curug 2022-01-25 14:00:00 WIB Barat Daya 14.8 >=10 Berawan 30 23 1007
23 Soekarno Hatta - Jakarta 2022-01-25 15:30:00 WIB Utara 13.0 >=10 Berawan 31 26 1006
24 Halim Perdana Kusuma - Jakarta 2022-01-25 15:30:00 WIB Utara 18.5 6.0 Berawan 29 24 1006
25 Husein Sastranegara - Bandung 2022-01-25 15:00:00 WIB Barat 29.6 >=10 Cerah - berawan 28 18 1011
26 Suryadarma - Kalijati, Subang 2022-01-25 14:00:00 WIB Barat 25.9 8.0 Cerah - berawan 32 24 1006
27 H.A.S. Hanandjoeddin - Tanjung Pandan 2022-01-25 15:30:00 WIB Utara 31.5 >=10 Berawan 30 24 1007
28 Kertajati 2022-01-25 15:30:00 WIB Barat Laut 27.8 >=10 Berawan 31 24 1004
29 Wiriadinata - Cibeureum, Tasikmalaya 2022-01-25 14:00:00 WIB Timur 9.3 6.0 Berawan 30 24 1007
30 Ranai - Natuna 2022-01-25 15:30:00 WIB Utara 13.0 9.0 Hujan ringan 27 26 1008
31 Tunggul Wulung - Cilacap 2022-01-25 15:30:00 WIB Variabel 7.4 7.0 Berawan 31 27 1004
32 Paloh - Sambas 2022-01-25 15:00:00 WIB Utara 7.4 >=10 Berawan 29 25 1008
33 Supadio - Pontianak 2022-01-25 15:30:00 WIB Barat Laut 18.5 >=10 Berawan 29 26 1006
34 Rahadi Oesman - Ketapang 2022-01-25 15:30:00 WIB Barat Laut 22.2 >=10 Cerah - berawan 31 26 1006
35 Yogyakarta International Airport - Kulonprogo 2022-01-25 15:30:00 WIB Barat 14.8 >=10 Cerah - berawan 31 25 1004
36 Ahmad Yani - Semarang 2022-01-25 15:30:00 WIB Barat 25.9 8.0 Berawan 31 24 1004
37 Adi Sutjipto - Yogyakarta 2022-01-25 15:00:00 WIB Barat 20.4 8.0 Berawan 31 24 1004
38 Adi Soemarmo - Surakarta 2022-01-25 15:30:00 WIB Utara 14.8 4.0 Guntur dan hujan ringan 28 24 1004
39 Iswahjudi - Madiun 2022-01-25 13:30:00 WIB Utara 14.8 8.0 Berawan 32 26 1005
40 Tebelian - Sintang 2022-01-25 14:30:00 WIB Barat Laut 7.4 8.0 Berawan 30 23 1006
41 Iskandar - Pangkalan Bun 2022-01-25 15:00:00 WIB Barat 14.8 >=10 Berawan 34 21 1005
42 Nanga Pinoh 2022-01-25 15:00:00 WIB Barat 13.0 >=10 Berawan 32 24 1006
43 Bawean - Harun Thohir 2022-01-25 13:00:00 WIB Barat 24.1 >=10 Berawan 30 26 1009
44 Juanda - Surabaya 2022-01-25 15:30:00 WIB Barat Laut 33.3 >=10 Cerah - berawan 33 25 1003
45 Pangsuma - Putussibau 2022-01-25 15:00:00 WIB Selatan 7.4 >=10 Berawan 32 24 1007
46 Haji Asan - Sampit 2022-01-25 15:30:00 WIB Barat Daya 9.3 >=10 Cerah - berawan 33 23 1005
47 Noto Hadinegoro - Jember 2022-01-25 15:00:00 WIB Barat Daya 24.1 8.0 Berawan 33 27 1005
48 Tjilik Riwut - Palangkaraya 2022-01-25 15:30:00 WIB Barat Laut 11.1 >=10 Berawan 34 24 1004
49 Banyuwangi 2022-01-25 15:30:00 WIB Timur Laut 18.5 8.0 Berawan 32 26 1003
50 Beringin - Muara Teweh 2022-01-25 15:30:00 WIB Tenang >=10 Berawan 32 25 1005
51 Sanggu - Buntok 2022-01-25 15:00:00 WIB Selatan 5.6 >=10 Berawan 32 25 1006
52 H. Hasan Aroeboesman - Ende 2022-01-25 15:00:00 WIB Barat 16.7 8.0 Berawan 33 25 1002
53 Syamsudin Noor - Banjarmasin 2022-01-25 16:30:00 WITA Barat Daya 11.1 >=10 Cerah - berawan 33 24 1004
54 I Gusti Ngurah Rai - Denpasar 2022-01-25 16:30:00 WITA Barat 29.6 >=10 Cerah - berawan 31 25 1003
55 Yuvai Semaring - Long Bawang 2022-01-25 16:00:00 WITA Barat 11.1 6.0 Hujan tiba-tiba di sekitarnya 24 20 1012
56 Gusti Sjamsir Alam - Kota Baru 2022-01-25 16:30:00 WITA Utara 7.4 8.0 Berawan 32 24 1004
57 Bandara Internasional Lombok - Praya 2022-01-25 16:30:00 WITA Barat Laut 16.7 8.0 Berawan 32 23 1004
58 Bandar Udara Robert Atty Bessing 2022-01-25 16:30:00 WITA Tenggara 9.3 >=10 Berawan 34 25 1006
59 Sultan Aji Muhammad Sulaiman - Sepinggan 2022-01-25 16:30:00 WITA Timur 7.4 >=10 Berawan 29 27 1006
60 Aji Pangeran Tumenggung Pranoto - Samarinda 2022-01-25 16:30:00 WITA Utara 1.9 >=10 Cerah - berawan 29 25 1006
61 Tanjung Harapan - Tanjung Selor 2022-01-25 16:30:00 WITA Timur Laut 9.3 8.0 Berawan 33 25 1005
62 Sultan Muhammad Kaharuddin - Sumbawa Besar 2022-01-25 16:30:00 WITA Barat Laut 24.1 8.0 Berawan 30 26 1003
63 Kalimarau - Tanjung Redeb 2022-01-25 16:30:00 WITA Variabel 3.7 4.0 Berawan 26 25 1006
64 Juwata - Tarakan 2022-01-25 16:00:00 WITA Timur 7.4 >=10 Berawan 31 26 1005
65 Nunukan 2022-01-25 16:00:00 WITA Tenggara 9.3 8.0 Cerah - berawan 32 25 1004
66 Sultan Muhammad Salahuddin - Bima 2022-01-25 16:30:00 WITA Timur Laut 9.3 8.0 Berawan 30 26 1003
67 Tampa Padang - Mamuju 2022-01-25 15:00:00 WITA Utara 5.6 >=10 Berawan 28 23 1007
68 Tambolaka - Sumba Barat 2022-01-25 15:00:00 WITA Barat Laut 16.7 >=10 Cerah - berawan 31 22 1005
69 Sultan Hasanuddin - Makassar 2022-01-25 16:00:00 WITA Barat Laut 20.4 >=10 Berawan 29 27 1005
70 Pongtiku - Tana Toraja 2022-01-25 15:00:00 WITA Selatan 5.6 >=10 Berawan 30 25 1004
71 Komodo - Labuan Bajo 2022-01-25 16:30:00 WITA Barat Laut 9.3 >=10 Berawan 29 26 1005
72 Mutiara SIS Al-Jufri - Palu 2022-01-25 16:30:00 WITA Barat 7.4 8.0 Berawan 27 23 1007
73 Umbu Mehang Kunda - Waingapu 2022-01-25 16:00:00 WITA Utara 27.8 >=10 Berawan 32 23 1002
74 Andi Jemma - Masamba 2022-01-25 16:00:00 WITA Timur 7.4 7.0 Berawan 28 24 1004
75 Frans Sales Lega - Ruteng 2022-01-25 16:30:00 WITA Barat 13.0 8.0 Berawan 21 19 1011
76 Kasiguncu - Poso 2022-01-25 16:00:00 WITA Tenang 8.0 Berawan 28 25 1005
77 Sultan Bantilan - Toli Toli 2022-01-25 16:00:00 WITA Barat 7.4 >=10 Cerah - berawan 30 26 1006
78 SOA - Bajawa 2022-01-25 14:00:00 WITA Barat 13.0 >=10 Berawan 28 21 1007
79 Sangia Nibandera - Kolaka 2022-01-25 16:00:00 WITA Barat 9.3 >=10 Cerah - berawan 33 24 1004
80 Tardamu - Sabu 2022-01-25 16:30:00 WITA Barat 7.4 >=10 Berawan 31 26 1003
81 Fransiskus Xaverius Seda - Maumere 2022-01-25 16:30:00 WITA Barat Laut 20.4 9.0 Berawan 28 27 1005
82 Haluoleo - Kendari 2022-01-25 16:30:00 WITA Timur 16.7 >=10 Berawan 30 25 1006
83 Beto Ambari - Bau Bau 2022-01-25 16:00:00 WITA Barat Daya 14.8 >=10 Cerah - berawan 31 24 1006
84 Syukuran Aminuddin Amir - Luwuk 2022-01-25 15:00:00 WITA Barat Laut 9.3 7.0 Hujan ringan 27 24 1004
85 Djalaluddin - Gorontalo 2022-01-25 16:00:00 WITA Utara 16.7 >=10 Hujan tiba-tiba di sekitarnya 29 25 1004
86 Gewayantana - Larantuka 2022-01-25 16:30:00 WITA Barat Laut 22.2 >=10 Berawan 30 23 1003
87 David Constantijn Saudale - Rote 2022-01-25 16:00:00 WITA Barat Laut 13.0 >=10 Berawan 30 26 1008
88 El Tari - Kupang 2022-01-25 16:30:00 WITA Barat Laut 18.5 >=10 Berawan 30 25 1004
89 Mali - Alor 2022-01-25 15:00:00 WITA Selatan 11.1 >=10 Berawan 30 26 1005
90 Sam Ratulangi - Manado 2022-01-25 16:30:00 WITA Barat 16.7 >=10 Cerah - berawan 30 24 1006
91 Naha - Tahuna 2022-01-25 16:00:00 WITA Selatan 18.5 8.0 Berawan 30 24 1004
92 Emalamo - Sanana 2022-01-25 17:00:00 WIT Selatan 7.4 >=10 Cerah - berawan 33 26 1004
93 Namniwel - Namlea 2022-01-25 15:00:00 WIT Utara 13.0 >=10 Cerah - berawan 31 26 1004
94 Sultan Babullah - Ternate 2022-01-25 17:00:00 WIT Utara 13.0 >=10 Berawan 30 25 1005
95 Oesman Sadik - Labuha 2022-01-25 17:00:00 WIT Barat 3.7 9.0 Cerah - berawan 32 24 1005
96 Gamar Malamo - Galela 2022-01-25 17:00:00 WIT Barat 9.3 >=10 Berawan 30 23 1005
97 Kuabang Kao 2022-01-25 15:00:00 WIT Selatan 14.8 >=10 Berawan 34 25 1005
98 Pattimura - Ambon 2022-01-25 17:30:00 WIT Barat Laut 9.3 >=10 Cerah - berawan 32 23 1004
99 Pitu - Morotai 2022-01-25 15:00:00 WIT Barat 9.3 >=10 Cerah - berawan 31 25 1005
100 Amahai 2022-01-25 17:00:00 WIT Selatan 7.4 >=10 Berawan 32 25 1005
101 Bandaneira - Banda 2022-01-25 17:00:00 WIT Timur Laut 5.6 >=10 Cerah - berawan 31 25 1004
102 Domine Eduard Osok - Sorong 2022-01-25 17:30:00 WIT Utara 11.1 >=10 Cerah - berawan 30 24 1005
103 Mathilda Batlayeri - Saumlaki 2022-01-25 16:00:00 WIT Barat 13.0 >=10 Berawan 31 25 1004
104 Torea - Fak Fak 2022-01-25 15:00:00 WIT Tenggara 13.0 >=10 Cerah - berawan 32 26 1006
105 Karel Sadsuitubun - Tual 2022-01-25 17:00:00 WIT Utara 9.3 >=10 Berawan 31 24 1005
106 Utarom - Kaimana 2022-01-25 17:00:00 WIT Barat Laut 11.1 >=10 Cerah - berawan 35 26 1004
107 Rendani - Manokwari 2022-01-25 16:00:00 WIT Timur 9.3 >=10 Berawan 32 25 1005
108 Douw Aturure - Nabire 2022-01-25 17:00:00 WIT Barat Laut 5.6 >=10 Berawan 32 26 1005
109 Frans Kaisiepo - Biak 2022-01-25 17:30:00 WIT Variabel 3.7 >=10 Berawan 28 26 1006
110 Enarotali 2022-01-25 16:00:00 WIT Barat 18.5 8.0 Berawan 24 18 1005
111 Mozes Kilangin - Timika 2022-01-25 17:30:00 WIT Barat Laut 18.5 3.0 Guntur dan hujan ringan 25 24 1007
112 Mararena / Orai - Sarmi 2022-01-25 17:00:00 WIT Timur 9.3 >=10 Cerah - berawan 29 25 1006
113 Wamena 2022-01-25 16:00:00 WIT Barat Laut 18.5 >=10 Hujan tiba-tiba di sekitarnya 27 16 1015
114 Tanah Merah 2022-01-25 15:00:00 WIT Barat 11.1 >=10 Cerah - berawan 34 24 1005
115 Mopah - Merauke 2022-01-25 17:30:00 WIT Barat Daya 9.3 >=10 Berawan 30 25 1005
116 Sentani - Jayapura 2022-01-25 17:30:00 WIT Tenggara 7.4 >=10 Cerah - berawan 30 24 1005

Satellite Images

Wave Height Forecast

Wind Forecast

Forest Fires